Terminal Aerodrome Forecast
Issued by NWS Wilmington, OH

Current Version | Previous Version | Graphics & Text | Print | Product List | Glossary On
Versions: 1 2 3 4 5 6 7 8 9 10 11 12 13 14 15 16 17 18
000
FTUS41 KILN 231926 AAF
TAFILN
TAF AMD
KILN 231926Z 2319/2418 25008KT P6SM VCSH SCT025 SCT080
     FM240000 29005KT P6SM SCT080
     FM240600 25004KT 5SM BR SCT250
     FM240800 25004KT 2SM BR SCT250
     FM241300 27006KT P6SM SCT030
     FM241700 30008KT P6SM SCT035=

USA.gov is the U.S. government's official web portal to all federal, state and local government web resources and services.